createdAt,value
2022-09-22T00:00:02.266Z,15.80
2022-09-22T00:02:33.003Z,15.70
2022-09-22T00:05:00.577Z,15.70
2022-09-22T00:07:27.757Z,15.60
2022-09-22T00:09:55.065Z,15.60
2022-09-22T00:12:22.547Z,15.60
2022-09-22T00:14:49.846Z,15.50
2022-09-22T00:17:17.090Z,15.40
2022-09-22T00:19:44.306Z,15.40
2022-09-22T00:22:11.505Z,15.40
2022-09-22T00:24:38.866Z,15.30
2022-09-22T00:27:06.597Z,15.30
2022-09-22T00:29:33.866Z,15.30
2022-09-22T00:32:06.995Z,15.30
2022-09-22T00:34:34.733Z,15.30
2022-09-22T00:37:02.395Z,15.20
2022-09-22T00:39:31.066Z,15.20
2022-09-22T00:41:58.317Z,15.20
2022-09-22T00:44:36.769Z,15.20
2022-09-22T00:47:06.804Z,15.20
2022-09-22T00:49:36.764Z,15.20
2022-09-22T00:52:04.266Z,15.20
2022-09-22T00:54:31.945Z,15.20
2022-09-22T00:57:07.687Z,15.20
2022-09-22T00:59:36.426Z,15.20
2022-09-22T01:02:03.943Z,15.10
2022-09-22T01:04:31.316Z,15.10
2022-09-22T01:06:59.146Z,15.10
2022-09-22T01:09:27.287Z,15.10
2022-09-22T01:11:54.536Z,15.00
2022-09-22T01:14:32.045Z,15.00
2022-09-22T01:17:02.146Z,15.00
2022-09-22T01:19:47.757Z,14.90
2022-09-22T01:22:18.127Z,14.90
2022-09-22T01:24:48.176Z,14.80
2022-09-22T01:27:34.006Z,14.80
2022-09-22T01:30:10.076Z,14.80
2022-09-22T01:32:42.763Z,14.70
2022-09-22T01:35:10.027Z,14.70
2022-09-22T01:37:37.526Z,14.70
2022-09-22T01:40:07.639Z,14.70
2022-09-22T01:42:55.066Z,14.70
2022-09-22T01:45:24.256Z,14.70
2022-09-22T01:47:53.847Z,14.70
2022-09-22T01:50:32.849Z,14.60
2022-09-22T01:53:03.566Z,14.70
2022-09-22T01:55:32.987Z,14.70
2022-09-22T01:58:18.494Z,14.70
2022-09-22T02:01:13.614Z,14.60
2022-09-22T02:03:44.736Z,14.60
2022-09-22T02:06:18.606Z,14.60
2022-09-22T02:08:48.476Z,14.60
2022-09-22T02:11:18.897Z,14.60
2022-09-22T02:13:47.336Z,14.60
2022-09-22T02:16:16.234Z,14.60
2022-09-22T02:18:49.526Z,14.60
2022-09-22T02:21:17.346Z,14.60
2022-09-22T02:23:45.296Z,14.60
2022-09-22T02:26:13.664Z,14.60
2022-09-22T02:28:42.215Z,14.60
2022-09-22T02:31:20.076Z,14.60
2022-09-22T02:33:48.129Z,14.60
2022-09-22T02:36:23.897Z,14.60
2022-09-22T02:39:00.397Z,14.60
2022-09-22T02:41:36.086Z,14.60
2022-09-22T02:44:06.192Z,14.60
2022-09-22T02:46:33.513Z,14.60
2022-09-22T02:49:04.075Z,14.60
2022-09-22T02:51:31.445Z,14.50
2022-09-22T02:53:58.705Z,14.50
2022-09-22T02:56:25.996Z,14.50
2022-09-22T02:58:58.169Z,14.50
2022-09-22T03:01:26.000Z,14.50
2022-09-22T03:03:53.765Z,14.50
2022-09-22T03:06:21.116Z,14.50
2022-09-22T03:08:48.366Z,14.60
2022-09-22T03:11:15.606Z,14.50
2022-09-22T03:13:42.856Z,14.40
2022-09-22T03:16:10.196Z,14.30
2022-09-22T03:18:37.485Z,14.30
2022-09-22T03:21:05.277Z,14.30
2022-09-22T03:23:32.547Z,14.20
2022-09-22T03:25:59.815Z,14.20
2022-09-22T03:28:27.106Z,14.20
2022-09-22T03:30:54.437Z,14.20
2022-09-22T03:33:21.694Z,14.10
2022-09-22T03:35:48.975Z,14.10
2022-09-22T03:38:16.188Z,14.10
2022-09-22T03:40:49.684Z,14.00
2022-09-22T03:43:17.615Z,14.00
2022-09-22T03:45:45.161Z,13.90
2022-09-22T03:48:12.611Z,13.90
2022-09-22T03:50:39.808Z,13.80
2022-09-22T03:53:07.086Z,13.80
2022-09-22T03:55:34.946Z,13.80
2022-09-22T03:58:02.227Z,13.80
2022-09-22T04:00:29.578Z,13.70
2022-09-22T04:02:57.756Z,13.70
2022-09-22T04:05:25.517Z,13.70
2022-09-22T04:07:52.977Z,13.70
2022-09-22T04:10:21.127Z,13.70
2022-09-22T04:12:48.727Z,13.60
2022-09-22T04:15:16.838Z,13.60
2022-09-22T04:17:46.587Z,13.60
2022-09-22T04:20:13.837Z,13.50
2022-09-22T04:22:41.186Z,13.60
2022-09-22T04:25:08.869Z,13.50
2022-09-22T04:27:36.247Z,13.50
2022-09-22T04:30:03.656Z,13.50
2022-09-22T04:32:30.938Z,13.50
2022-09-22T04:34:58.231Z,13.40
2022-09-22T04:37:25.478Z,13.40
2022-09-22T04:39:54.627Z,13.40
2022-09-22T04:42:22.037Z,13.40
2022-09-22T04:44:49.216Z,13.50
2022-09-22T04:47:16.647Z,13.50
2022-09-22T04:49:43.876Z,13.50
2022-09-22T04:52:11.175Z,13.50
2022-09-22T04:54:38.457Z,13.50
2022-09-22T04:57:05.940Z,13.60
2022-09-22T04:59:33.146Z,13.50
2022-09-22T05:02:00.447Z,13.40
2022-09-22T05:04:28.109Z,13.30
2022-09-22T05:06:55.558Z,13.30
2022-09-22T05:09:22.976Z,13.30
2022-09-22T05:11:50.278Z,13.40
2022-09-22T05:14:21.589Z,13.40
2022-09-22T05:16:51.303Z,13.30
2022-09-22T05:19:18.474Z,13.30
2022-09-22T05:21:45.489Z,13.30
2022-09-22T05:24:12.620Z,13.30
2022-09-22T05:26:39.780Z,13.20
2022-09-22T05:29:06.830Z,13.20
2022-09-22T05:31:34.085Z,13.20
2022-09-22T05:34:01.180Z,13.20
2022-09-22T05:36:28.219Z,13.10
2022-09-22T05:38:55.329Z,13.00
2022-09-22T05:41:22.399Z,13.00
2022-09-22T05:43:49.390Z,12.90
2022-09-22T05:46:16.575Z,12.90
2022-09-22T05:48:43.589Z,12.90
2022-09-22T05:51:10.760Z,12.90
2022-09-22T05:53:37.830Z,12.90
2022-09-22T05:56:05.026Z,12.90
2022-09-22T05:58:31.999Z,12.90
2022-09-22T06:00:59.191Z,13.00
2022-09-22T06:03:26.320Z,13.00
2022-09-22T06:05:53.410Z,13.00
2022-09-22T06:08:20.519Z,13.00
2022-09-22T06:10:49.211Z,13.10
2022-09-22T06:13:16.251Z,13.10
2022-09-22T06:15:44.870Z,13.00
2022-09-22T06:18:15.159Z,13.00
2022-09-22T06:20:43.050Z,13.00
2022-09-22T06:23:10.549Z,13.00
2022-09-22T06:25:37.631Z,13.00
2022-09-22T06:28:05.818Z,13.00
2022-09-22T06:30:34.009Z,13.00
2022-09-22T06:33:01.220Z,13.00
2022-09-22T06:35:46.462Z,13.00
2022-09-22T06:38:16.957Z,13.00
2022-09-22T06:40:44.260Z,13.00
2022-09-22T06:43:17.409Z,13.10
2022-09-22T06:45:44.512Z,13.20
2022-09-22T06:48:11.892Z,13.20
2022-09-22T06:50:41.196Z,13.20
2022-09-22T06:53:11.772Z,13.20
2022-09-22T06:55:41.746Z,13.30
2022-09-22T06:58:09.317Z,13.30
2022-09-22T07:00:37.379Z,13.30
2022-09-22T07:03:21.089Z,13.40
2022-09-22T07:06:01.033Z,13.40
2022-09-22T07:08:29.552Z,13.50
2022-09-22T07:11:02.422Z,13.50
2022-09-22T07:13:31.259Z,13.60
2022-09-22T07:16:02.278Z,13.60
2022-09-22T07:18:30.074Z,13.70
2022-09-22T07:21:10.479Z,13.80
2022-09-22T07:23:37.539Z,13.80
2022-09-22T07:26:12.349Z,13.90
2022-09-22T07:28:39.950Z,14.00
2022-09-22T07:31:08.528Z,14.10
2022-09-22T07:33:36.509Z,14.20
2022-09-22T07:36:23.872Z,14.30
2022-09-22T07:38:51.874Z,14.40
2022-09-22T07:41:21.760Z,14.50
2022-09-22T07:43:53.589Z,14.60
2022-09-22T07:46:20.762Z,14.70
2022-09-22T07:48:48.117Z,14.90
2022-09-22T07:51:21.774Z,14.90
2022-09-22T07:53:50.000Z,15.10
2022-09-22T07:56:18.440Z,15.30
2022-09-22T07:58:52.509Z,15.50
2022-09-22T08:01:20.612Z,15.80
2022-09-22T08:03:47.791Z,16.10
2022-09-22T08:06:16.204Z,16.40
2022-09-22T08:08:44.830Z,16.70
2022-09-22T08:11:15.040Z,16.90
2022-09-22T08:13:43.924Z,17.10
2022-09-22T08:16:11.988Z,17.30
2022-09-22T08:18:39.830Z,17.70
2022-09-22T08:21:07.230Z,18.00
2022-09-22T08:23:34.592Z,18.30
2022-09-22T08:26:05.781Z,18.40
2022-09-22T08:28:33.349Z,18.70
2022-09-22T08:31:00.822Z,18.90
2022-09-22T08:33:29.570Z,19.20
2022-09-22T08:35:57.949Z,19.40
2022-09-22T08:38:28.254Z,19.70
2022-09-22T08:40:56.208Z,19.90
2022-09-22T08:43:23.396Z,20.20
2022-09-22T08:45:50.930Z,20.40
2022-09-22T08:48:41.600Z,20.40
2022-09-22T08:51:30.635Z,20.60
2022-09-22T08:54:03.055Z,20.80
2022-09-22T08:56:51.882Z,21.10
2022-09-22T08:59:23.139Z,21.40
2022-09-22T09:02:02.757Z,21.80
2022-09-22T09:04:44.929Z,22.00
2022-09-22T09:07:15.039Z,22.30
2022-09-22T09:09:51.810Z,22.50
2022-09-22T09:12:33.530Z,22.70
2022-09-22T09:15:15.580Z,22.90
2022-09-22T09:17:44.710Z,23.10
2022-09-22T09:20:19.791Z,23.40
2022-09-22T09:22:55.897Z,23.60
2022-09-22T09:25:35.932Z,23.60
2022-09-22T09:28:07.253Z,23.50
2022-09-22T09:30:41.881Z,23.50
2022-09-22T09:33:14.490Z,23.60
2022-09-22T09:35:44.410Z,23.80
2022-09-22T09:38:14.846Z,24.00
2022-09-22T09:40:42.452Z,24.00
2022-09-22T09:43:10.570Z,24.10
2022-09-22T09:45:37.554Z,24.20
2022-09-22T09:48:04.549Z,24.40
2022-09-22T09:50:32.536Z,24.50
2022-09-22T09:53:00.138Z,24.60
2022-09-22T09:55:27.831Z,24.80
2022-09-22T09:58:02.611Z,24.80
2022-09-22T10:00:32.673Z,25.00
2022-09-22T10:03:02.741Z,25.10
2022-09-22T10:05:30.747Z,25.20
2022-09-22T10:07:59.032Z,25.30
2022-09-22T10:10:28.890Z,25.10
2022-09-22T10:12:58.961Z,25.00
2022-09-22T10:15:26.771Z,25.10
2022-09-22T10:17:53.869Z,25.10
2022-09-22T10:20:28.359Z,25.20
2022-09-22T10:22:56.191Z,25.30
2022-09-22T10:25:27.549Z,25.50
2022-09-22T10:28:02.170Z,25.60
2022-09-22T10:30:33.190Z,25.80
2022-09-22T10:33:06.322Z,25.80
2022-09-22T10:35:34.651Z,25.80
2022-09-22T10:38:13.453Z,25.70
2022-09-22T10:40:42.150Z,25.80
2022-09-22T10:43:18.966Z,25.90
2022-09-22T10:46:06.238Z,25.90
2022-09-22T10:48:39.030Z,25.80
2022-09-22T10:51:09.329Z,25.80
2022-09-22T10:53:36.370Z,25.90
2022-09-22T10:56:05.683Z,26.00
2022-09-22T10:58:40.360Z,26.00
2022-09-22T11:01:12.082Z,26.20
2022-09-22T11:03:48.222Z,26.30
2022-09-22T11:06:33.910Z,26.20
2022-09-22T11:09:42.075Z,26.30
2022-09-22T11:12:17.115Z,26.40
2022-09-22T11:14:53.344Z,26.30
2022-09-22T11:17:43.087Z,26.40
2022-09-22T11:20:27.865Z,26.40
2022-09-22T11:23:13.623Z,26.30
2022-09-22T11:25:40.924Z,26.40
2022-09-22T11:28:31.283Z,26.40
2022-09-22T11:30:59.391Z,26.50
2022-09-22T11:33:55.684Z,26.60
2022-09-22T11:36:31.284Z,26.60
2022-09-22T11:39:01.584Z,26.70
2022-09-22T11:41:38.304Z,26.80
2022-09-22T11:44:12.054Z,26.90
2022-09-22T11:46:55.067Z,26.70
2022-09-22T11:49:41.143Z,26.80
2022-09-22T11:52:16.565Z,26.70
2022-09-22T11:55:00.509Z,26.80
2022-09-22T11:57:31.387Z,26.80
2022-09-22T11:59:59.084Z,26.80
2022-09-22T12:02:32.595Z,26.70
2022-09-22T12:05:02.063Z,26.70
2022-09-22T12:07:34.264Z,26.70
2022-09-22T12:10:03.287Z,26.50
2022-09-22T12:12:31.732Z,26.40
2022-09-22T12:15:22.246Z,26.50
2022-09-22T12:17:57.214Z,26.60
2022-09-22T12:20:33.404Z,26.60
2022-09-22T12:23:19.115Z,26.60
2022-09-22T12:25:52.374Z,26.50
2022-09-22T12:28:23.054Z,26.40
2022-09-22T12:31:00.045Z,26.30
2022-09-22T12:36:09.023Z,26.50
2022-09-22T12:38:36.185Z,26.60
2022-09-22T12:41:04.548Z,26.60
2022-09-22T12:43:32.724Z,26.60
2022-09-22T12:48:45.328Z,26.40
2022-09-22T12:51:30.555Z,26.50
2022-09-22T12:54:37.158Z,26.50
2022-09-22T12:59:39.323Z,26.70
2022-09-22T13:02:16.144Z,26.80
2022-09-22T13:04:49.557Z,26.90
2022-09-22T13:07:46.172Z,26.90
2022-09-22T13:10:22.383Z,26.90
2022-09-22T13:13:09.448Z,26.90
2022-09-22T13:18:33.564Z,26.60
2022-09-22T13:21:21.115Z,26.60
2022-09-22T13:23:51.084Z,26.60
2022-09-22T13:26:25.803Z,26.50
2022-09-22T13:29:00.264Z,26.50
2022-09-22T13:31:27.644Z,26.60
2022-09-22T13:33:54.824Z,26.60
2022-09-22T13:36:23.992Z,26.60
2022-09-22T13:38:55.604Z,26.60
2022-09-22T13:41:30.284Z,26.60
2022-09-22T13:44:01.714Z,26.70
2022-09-22T13:46:45.665Z,26.70
2022-09-22T13:49:17.134Z,26.80
2022-09-22T13:51:49.054Z,26.90
2022-09-22T13:54:20.091Z,26.80
2022-09-22T13:56:47.364Z,26.70
2022-09-22T13:59:17.341Z,26.70
2022-09-22T14:01:49.212Z,26.70
2022-09-22T14:04:27.055Z,26.70
2022-09-22T14:06:56.244Z,26.60
2022-09-22T14:09:24.323Z,26.60
2022-09-22T14:11:51.943Z,26.50
2022-09-22T14:14:26.497Z,26.40
2022-09-22T14:17:13.934Z,26.40
2022-09-22T14:19:44.960Z,26.40
2022-09-22T14:22:15.104Z,26.50
2022-09-22T14:24:45.105Z,26.60
2022-09-22T14:27:27.433Z,26.50
2022-09-22T14:29:55.376Z,26.50
2022-09-22T14:32:25.625Z,26.50
2022-09-22T14:34:57.142Z,26.50
2022-09-22T14:37:29.443Z,26.60
2022-09-22T14:39:58.704Z,26.50
2022-09-22T14:42:29.914Z,26.40
2022-09-22T14:45:09.184Z,26.30
2022-09-22T14:47:40.985Z,26.30
2022-09-22T14:50:11.555Z,26.20
2022-09-22T14:52:40.923Z,26.20
2022-09-22T14:55:28.925Z,26.20
2022-09-22T14:57:56.856Z,26.30
2022-09-22T15:00:42.656Z,26.20
2022-09-22T15:03:30.113Z,26.20
2022-09-22T15:06:05.634Z,26.30
2022-09-22T15:08:32.713Z,26.30
2022-09-22T15:13:42.167Z,26.40
2022-09-22T15:16:27.921Z,26.40
2022-09-22T15:18:55.627Z,26.50
2022-09-22T15:21:29.356Z,26.40
2022-09-22T15:23:58.122Z,26.40
2022-09-22T15:26:26.281Z,26.30
2022-09-22T15:28:54.720Z,26.30
2022-09-22T15:31:29.103Z,26.30
2022-09-22T15:33:57.211Z,26.20
2022-09-22T15:36:25.854Z,26.10
2022-09-22T15:38:59.680Z,26.20
2022-09-22T15:41:27.275Z,26.20
2022-09-22T15:43:54.671Z,26.10
2022-09-22T15:46:34.106Z,26.00
2022-09-22T15:49:08.912Z,25.90
2022-09-22T15:51:36.525Z,25.90
2022-09-22T15:54:03.774Z,25.90
2022-09-22T15:56:31.134Z,25.80
2022-09-22T16:01:42.756Z,25.70
2022-09-22T16:04:10.676Z,25.80
2022-09-22T16:06:38.417Z,25.80
2022-09-22T16:09:06.246Z,25.80
2022-09-22T16:14:14.750Z,25.80
2022-09-22T16:16:43.201Z,25.80
2022-09-22T16:21:53.063Z,25.70
2022-09-22T16:24:22.794Z,25.60
2022-09-22T16:26:51.543Z,25.60
2022-09-22T16:29:18.825Z,25.60
2022-09-22T16:31:46.377Z,25.60
2022-09-22T16:34:13.702Z,25.50
2022-09-22T16:36:41.982Z,25.50
2022-09-22T16:39:09.273Z,25.50
2022-09-22T16:41:37.028Z,25.50
2022-09-22T16:44:04.894Z,25.40
2022-09-22T16:46:33.944Z,25.30
2022-09-22T16:49:05.385Z,25.30
2022-09-22T16:51:36.662Z,25.30
2022-09-22T16:54:05.702Z,25.20
2022-09-22T16:56:34.293Z,25.20
2022-09-22T16:59:04.593Z,25.20
2022-09-22T17:04:16.591Z,25.00
2022-09-22T17:06:44.013Z,24.90
2022-09-22T17:09:11.931Z,24.90
2022-09-22T17:11:43.047Z,24.80
2022-09-22T17:14:12.575Z,24.70
2022-09-22T17:16:43.757Z,24.60
2022-09-22T17:19:11.968Z,24.50
2022-09-22T17:21:40.302Z,24.40
2022-09-22T17:24:09.412Z,24.40
2022-09-22T17:26:37.958Z,24.30
2022-09-22T17:29:06.258Z,24.20
2022-09-22T17:31:36.005Z,24.10
2022-09-22T17:34:03.373Z,24.00
2022-09-22T17:36:30.666Z,23.90
2022-09-22T17:38:58.788Z,23.70
2022-09-22T17:41:31.675Z,23.70
2022-09-22T17:44:01.519Z,23.60
2022-09-22T17:46:30.238Z,23.40
2022-09-22T17:49:16.454Z,23.30
2022-09-22T17:52:02.843Z,23.20
2022-09-22T17:57:31.231Z,22.90
2022-09-22T17:59:58.861Z,22.80
2022-09-22T18:02:27.615Z,22.70
2022-09-22T18:04:55.069Z,22.60
2022-09-22T18:07:24.198Z,22.50
2022-09-22T18:09:52.029Z,22.50
2022-09-22T18:12:21.610Z,22.30
2022-09-22T18:14:50.368Z,22.20
2022-09-22T18:17:19.214Z,22.20
2022-09-22T18:19:46.576Z,22.10
2022-09-22T18:22:17.043Z,22.00
2022-09-22T18:24:44.342Z,21.90
2022-09-22T18:27:13.433Z,21.80
2022-09-22T18:29:40.662Z,21.80
2022-09-22T18:32:07.731Z,21.70
2022-09-22T18:34:34.790Z,21.60
2022-09-22T18:37:03.990Z,21.50
2022-09-22T18:39:34.261Z,21.40
2022-09-22T18:42:01.349Z,21.30
2022-09-22T18:44:29.230Z,21.10
2022-09-22T18:46:58.039Z,20.90
2022-09-22T18:49:26.240Z,20.70
2022-09-22T18:51:53.559Z,20.50
2022-09-22T18:54:22.221Z,20.40
2022-09-22T18:56:50.041Z,20.30
2022-09-22T18:59:19.080Z,20.40
2022-09-22T19:01:46.967Z,20.20
2022-09-22T19:04:17.711Z,20.10
2022-09-22T19:07:04.129Z,20.00
2022-09-22T19:09:31.199Z,19.90
2022-09-22T19:11:58.949Z,19.80
2022-09-22T19:14:26.099Z,19.70
2022-09-22T19:16:53.510Z,19.80
2022-09-22T19:19:21.610Z,19.80
2022-09-22T19:21:52.029Z,19.80
2022-09-22T19:24:19.260Z,19.70
2022-09-22T19:26:46.290Z,19.70
2022-09-22T19:29:13.479Z,19.70
2022-09-22T19:31:41.600Z,19.70
2022-09-22T19:36:49.941Z,19.80
2022-09-22T19:39:17.020Z,19.80
2022-09-22T19:41:48.459Z,19.70
2022-09-22T19:44:16.422Z,19.60
2022-09-22T19:46:44.621Z,19.50
2022-09-22T19:49:12.239Z,19.50
2022-09-22T19:51:39.839Z,19.50
2022-09-22T19:56:49.790Z,19.30
2022-09-22T20:02:01.489Z,19.10
2022-09-22T20:04:34.061Z,19.10
2022-09-22T20:07:01.689Z,19.00
2022-09-22T20:09:28.850Z,18.90
2022-09-22T20:11:55.930Z,18.90
2022-09-22T20:14:23.753Z,18.80
2022-09-22T20:17:05.615Z,18.70
2022-09-22T20:19:34.197Z,18.70
2022-09-22T20:22:23.016Z,18.60
2022-09-22T20:24:54.948Z,18.60
2022-09-22T20:30:05.297Z,18.50
2022-09-22T20:32:32.587Z,18.50
2022-09-22T20:34:59.707Z,18.60
2022-09-22T20:37:26.766Z,18.50
2022-09-22T20:39:53.867Z,18.50
2022-09-22T20:42:20.923Z,18.50
2022-09-22T20:44:49.247Z,18.40
2022-09-22T20:47:17.429Z,18.50
2022-09-22T20:49:48.128Z,18.50
2022-09-22T20:52:20.247Z,18.50
2022-09-22T20:54:47.748Z,18.60
2022-09-22T20:57:14.997Z,18.60
2022-09-22T20:59:46.122Z,18.60
2022-09-22T21:02:14.393Z,18.70
2022-09-22T21:04:41.810Z,18.70
2022-09-22T21:07:09.361Z,18.70
2022-09-22T21:09:54.637Z,18.70
2022-09-22T21:12:21.786Z,18.80
2022-09-22T21:14:48.925Z,18.70
2022-09-22T21:17:15.960Z,18.70
2022-09-22T21:19:43.452Z,18.80
2022-09-22T21:22:10.717Z,18.80
2022-09-22T21:24:37.787Z,18.70
2022-09-22T21:27:05.228Z,18.60
2022-09-22T21:29:32.378Z,18.60
2022-09-22T21:32:00.751Z,18.60
2022-09-22T21:34:27.867Z,18.60
2022-09-22T21:36:54.948Z,18.60
2022-09-22T21:39:22.107Z,18.50
2022-09-22T21:41:49.519Z,18.50
2022-09-22T21:44:16.517Z,18.60
2022-09-22T21:46:44.420Z,18.50
2022-09-22T21:49:11.607Z,18.50
2022-09-22T21:51:42.338Z,18.40
2022-09-22T21:54:13.799Z,18.40
2022-09-22T21:56:41.148Z,18.40
2022-09-22T21:59:08.596Z,18.20
2022-09-22T22:01:37.249Z,18.20
2022-09-22T22:04:08.812Z,18.10
2022-09-22T22:06:43.098Z,18.00
2022-09-22T22:09:14.134Z,18.00
2022-09-22T22:11:43.095Z,18.00
2022-09-22T22:14:10.946Z,18.10
2022-09-22T22:16:39.175Z,18.00
2022-09-22T22:19:07.004Z,18.10
2022-09-22T22:21:34.335Z,18.10
2022-09-22T22:24:22.344Z,18.10
2022-09-22T22:26:56.964Z,18.10
2022-09-22T22:29:27.515Z,18.20
2022-09-22T22:31:54.619Z,18.20
2022-09-22T22:34:22.675Z,18.20
2022-09-22T22:36:49.798Z,18.20
2022-09-22T22:39:16.805Z,18.20
2022-09-22T22:41:44.674Z,18.10
2022-09-22T22:44:16.455Z,18.10
2022-09-22T22:46:43.885Z,18.00
2022-09-22T22:49:11.814Z,18.10
2022-09-22T22:51:43.330Z,18.10
2022-09-22T22:54:11.679Z,18.10
2022-09-22T22:56:41.968Z,18.00
2022-09-22T22:59:09.614Z,18.00
2022-09-22T23:01:36.849Z,17.90
2022-09-22T23:04:05.386Z,17.80
2022-09-22T23:06:35.871Z,17.70
2022-09-22T23:09:04.060Z,17.70
2022-09-22T23:11:32.997Z,17.70
2022-09-22T23:14:03.249Z,17.70
2022-09-22T23:16:31.267Z,17.60
2022-09-22T23:18:59.876Z,17.60
2022-09-22T23:21:27.505Z,17.50
2022-09-22T23:23:55.036Z,17.60
2022-09-22T23:26:22.574Z,17.60
2022-09-22T23:28:51.655Z,17.60
2022-09-22T23:31:19.654Z,17.60
2022-09-22T23:33:47.606Z,17.60
2022-09-22T23:36:18.575Z,17.70
2022-09-22T23:38:45.796Z,17.60
2022-09-22T23:41:13.365Z,17.60
2022-09-22T23:43:40.485Z,17.50
2022-09-22T23:46:07.882Z,17.40
2022-09-22T23:48:35.617Z,17.40
2022-09-22T23:51:03.334Z,17.30
2022-09-22T23:53:34.868Z,17.20
2022-09-22T23:56:02.727Z,17.20
2022-09-22T23:58:30.845Z,17.20
